Time;durP1;ratioP1;P1;durP2;ratioP2;P2;SDS_P1;SDS_P2;PMS_P1;PMS_P2;Temp;Humidity;BMP_temperature;BMP_pressure;BME280_temperature;BME280_humidity;BME280_pressure;Samples;Min_cycle;Max_cycle;Signal;HPM_P1;HPM_P2
2021/12/21 00:00:11;;;;;;;5.70;3.27;;;;;;;;;;5032977;28;20477;-63
2021/12/21 00:02:38;;;;;;;9.00;3.87;;;;;;;;;;5033272;28;20029;-62
2021/12/21 00:05:05;;;;;;;16.90;4.40;;;;;;;;;;5032830;28;20065;-63
2021/12/21 00:07:32;;;;;;;7.47;4.17;;;;;;;;;;5027511;28;20034;-63
2021/12/21 00:09:59;;;;;;;6.20;3.70;;;;;;;;;;5027501;28;20052;-62
2021/12/21 00:12:29;;;;;;;6.60;3.90;;;;;;;;;;5027467;28;20025;-63
2021/12/21 00:15:18;;;;;;;7.97;4.67;;;;;;;;;;5026944;28;20451;-62
2021/12/21 00:18:00;;;;;;;6.53;3.93;;;;;;;;;;5033034;28;20100;-62
2021/12/21 00:20:48;;;;;;;10.77;5.30;;;;;;;;;;5032857;28;20029;-63
2021/12/21 00:26:06;;;;;;;8.83;4.43;;;;;;;;;;5032143;28;20112;-62
2021/12/21 00:28:38;;;;;;;6.10;4.03;;;;;;;;;;5029959;28;20441;-62
2021/12/21 00:31:05;;;;;;;19.23;6.57;;;;;;;;;;5027226;28;20083;-62
2021/12/21 00:33:32;;;;;;;10.33;4.60;;;;;;;;;;5026949;28;20426;-63
2021/12/21 00:35:59;;;;;;;11.80;4.77;;;;;;;;;;5027175;28;20013;-63
2021/12/21 00:38:26;;;;;;;6.93;3.90;;;;;;;;;;5029058;28;20488;-63
2021/12/21 00:40:52;;;;;;;8.53;3.70;;;;;;;;;;5032553;28;20076;-62
2021/12/21 00:43:19;;;;;;;7.47;3.87;;;;;;;;;;5032171;28;20075;-62
2021/12/21 00:45:46;;;;;;;10.77;3.90;;;;;;;;;;5032389;28;20397;-63
2021/12/21 00:48:15;;;;;;;7.23;4.07;;;;;;;;;;5032264;28;20092;-62
2021/12/21 00:50:42;;;;;;;8.70;4.47;;;;;;;;;;5030442;28;20388;-62
2021/12/21 00:53:08;;;;;;;12.40;4.53;;;;;;;;;;5026682;28;20539;-62
2021/12/21 00:55:35;;;;;;;10.23;3.57;;;;;;;;;;5027037;28;20053;-62
2021/12/21 00:58:02;;;;;;;11.60;3.73;;;;;;;;;;5026867;28;20033;-62
2021/12/21 01:00:29;;;;;;;8.90;4.73;;;;;;;;;;5027664;28;20022;-62
2021/12/21 01:02:58;;;;;;;10.83;3.60;;;;;;;;;;5032016;28;20553;-63
2021/12/21 01:05:36;;;;;;;9.60;3.73;;;;;;;;;;5012366;28;20033;-63
2021/12/21 01:08:04;;;;;;;6.20;3.47;;;;;;;;;;5012240;28;20464;-62
2021/12/21 01:10:51;;;;;;;7.97;4.40;;;;;;;;;;5012453;28;20495;-62
2021/12/21 01:13:33;;;;;;;6.10;3.40;;;;;;;;;;5012524;28;20037;-62
2021/12/21 01:16:16;;;;;;;7.63;3.80;;;;;;;;;;5026836;28;20030;-62
2021/12/21 01:19:02;;;;;;;12.70;3.73;;;;;;;;;;5026289;28;20029;-62
2021/12/21 01:21:34;;;;;;;12.23;3.57;;;;;;;;;;5026474;28;20068;-62
2021/12/21 01:29:12;;;;;;;5.27;3.27;;;;;;;;;;5031586;28;20502;-63
2021/12/21 01:34:45;;;;;;;5.60;2.93;;;;;;;;;;5026936;28;20033;-62
2021/12/21 01:37:21;;;;;;;4.93;2.70;;;;;;;;;;5026702;28;20030;-62
2021/12/21 01:40:09;;;;;;;6.67;3.03;;;;;;;;;;5006820;28;20054;-62
2021/12/21 01:50:55;;;;;;;;;;;;;;;;;;5032402;28;20071;-62
2021/12/21 01:53:22;;;;;;;5.50;2.97;;;;;;;;;;5032048;28;19911;-62
2021/12/21 01:55:48;;;;;;;6.70;3.20;;;;;;;;;;5031635;28;20376;-62
2021/12/21 01:58:15;;;;;;;4.87;2.77;;;;;;;;;;5028525;28;20361;-62
2021/12/21 02:00:42;;;;;;;7.40;3.27;;;;;;;;;;5026433;28;21267;-62
2021/12/21 02:03:09;;;;;;;5.63;3.30;;;;;;;;;;5025594;28;20164;-62
2021/12/21 02:05:37;;;;;;;4.77;2.47;;;;;;;;;;5026230;28;20022;-62
2021/12/21 02:08:04;;;;;;;4.27;2.40;;;;;;;;;;5028722;28;20065;-62
2021/12/21 02:10:31;;;;;;;4.77;2.40;;;;;;;;;;5031382;28;20033;-63
2021/12/21 02:12:58;;;;;;;4.80;2.63;;;;;;;;;;5031531;28;20486;-62
2021/12/21 02:15:25;;;;;;;5.23;2.60;;;;;;;;;;5032907;28;20056;-62
2021/12/21 02:20:26;;;;;;;4.13;2.23;;;;;;;;;;5032164;28;20500;-62
2021/12/21 02:30:43;;;;;;;5.83;2.80;;;;;;;;;;5032841;28;20040;-62
2021/12/21 02:33:11;;;;;;;7.57;2.70;;;;;;;;;;5035032;28;20478;-62
2021/12/21 02:35:38;;;;;;;4.10;2.50;;;;;;;;;;5034895;28;20491;-62
2021/12/21 02:38:05;;;;;;;6.70;3.60;;;;;;;;;;5034583;28;20554;-62
2021/12/21 02:40:32;;;;;;;7.57;3.10;;;;;;;;;;5034771;28;20083;-62
2021/12/21 02:42:59;;;;;;;4.30;2.40;;;;;;;;;;5031237;28;20055;-62
2021/12/21 02:45:25;;;;;;;4.20;2.47;;;;;;;;;;5029094;28;20041;-62
2021/12/21 02:47:53;;;;;;;5.60;2.50;;;;;;;;;;5029124;28;20046;-62
2021/12/21 02:50:19;;;;;;;4.80;2.70;;;;;;;;;;5029426;28;20057;-63
2021/12/21 02:52:47;;;;;;;10.47;3.27;;;;;;;;;;5032205;28;20498;-62
2021/12/21 02:55:14;;;;;;;6.73;3.50;;;;;;;;;;5034641;28;20495;-62
2021/12/21 02:57:41;;;;;;;4.80;2.70;;;;;;;;;;5034291;28;20083;-62
2021/12/21 03:00:09;;;;;;;5.00;2.60;;;;;;;;;;5034172;28;20365;-63
2021/12/21 03:02:36;;;;;;;5.80;3.93;;;;;;;;;;5034531;28;20030;-62
2021/12/21 03:05:03;;;;;;;6.63;3.07;;;;;;;;;;5031490;28;20033;-62
2021/12/21 03:10:22;;;;;;;;;;;;;;;;;;5029745;28;20055;-62
2021/12/21 03:15:20;;;;;;;4.23;2.53;;;;;;;;;;5031957;28;20034;-62
2021/12/21 03:17:47;;;;;;;5.53;3.00;;;;;;;;;;5033853;28;20475;-62
2021/12/21 03:20:13;;;;;;;8.30;2.70;;;;;;;;;;5034167;28;20590;-62
2021/12/21 03:22:40;;;;;;;8.73;3.23;;;;;;;;;;5033940;28;20021;-62
2021/12/21 03:25:07;;;;;;;8.43;3.50;;;;;;;;;;5033976;28;20030;-62
2021/12/21 03:27:34;;;;;;;7.63;4.17;;;;;;;;;;5029413;28;20128;-62
2021/12/21 03:30:02;;;;;;;9.13;4.93;;;;;;;;;;5028346;28;20574;-63
2021/12/21 03:32:29;;;;;;;14.13;6.40;;;;;;;;;;5028559;28;20026;-62
2021/12/21 03:34:55;;;;;;;11.73;5.10;;;;;;;;;;5028505;28;20033;-62
2021/12/21 03:37:22;;;;;;;8.27;4.03;;;;;;;;;;5031104;28;20361;-62
2021/12/21 03:39:51;;;;;;;9.00;3.37;;;;;;;;;;5033291;28;20376;-62
2021/12/21 03:42:19;;;;;;;7.53;3.27;;;;;;;;;;5033206;28;20083;-62
2021/12/21 03:44:47;;;;;;;14.77;5.40;;;;;;;;;;5033833;28;20040;-62
2021/12/21 03:47:16;;;;;;;7.63;4.33;;;;;;;;;;5033390;28;20033;-62
2021/12/21 03:52:20;;;;;;;6.33;2.90;;;;;;;;;;5028308;28;20404;-62
2021/12/21 03:54:49;;;;;;;6.03;3.00;;;;;;;;;;5027651;28;20112;-62
2021/12/21 03:57:16;;;;;;;8.67;3.60;;;;;;;;;;5028281;28;20032;-62
2021/12/21 03:59:44;;;;;;;10.40;4.03;;;;;;;;;;5030484;28;20021;-62
2021/12/21 04:02:12;;;;;;;6.17;3.27;;;;;;;;;;5033262;28;20032;-63
2021/12/21 04:04:43;;;;;;;9.67;3.37;;;;;;;;;;5033288;28;20400;-62
2021/12/21 04:07:10;;;;;;;6.20;2.77;;;;;;;;;;5033049;28;20028;-62
2021/12/21 04:09:37;;;;;;;4.90;2.83;;;;;;;;;;5032543;28;20026;-62
2021/12/21 04:12:04;;;;;;;8.90;4.07;;;;;;;;;;5030136;28;20101;-62
2021/12/21 04:14:33;;;;;;;6.47;3.43;;;;;;;;;;5027844;28;20118;-61
2021/12/21 04:17:00;;;;;;;6.00;3.30;;;;;;;;;;5027672;28;20024;-62
2021/12/21 04:19:27;;;;;;;11.67;3.63;;;;;;;;;;5027493;28;20025;-62
2021/12/21 04:21:53;;;;;;;6.30;3.07;;;;;;;;;;5030073;28;20096;-62
2021/12/21 04:24:20;;;;;;;6.80;3.40;;;;;;;;;;5033027;28;20026;-62
2021/12/21 04:26:47;;;;;;;7.17;3.00;;;;;;;;;;5032784;28;20028;-62
2021/12/21 04:29:14;;;;;;;6.97;3.53;;;;;;;;;;5032712;28;20776;-62
2021/12/21 04:31:41;;;;;;;10.70;2.73;;;;;;;;;;5032499;28;20101;-62
2021/12/21 04:34:08;;;;;;;10.00;3.37;;;;;;;;;;5030174;28;20028;-62
2021/12/21 04:36:34;;;;;;;11.43;3.40;;;;;;;;;;5027487;28;20485;-62
2021/12/21 04:39:04;;;;;;;4.27;2.77;;;;;;;;;;5026765;28;20353;-62
2021/12/21 04:41:31;;;;;;;9.87;4.10;;;;;;;;;;5026671;28;20037;-62
2021/12/21 04:43:59;;;;;;;8.03;3.73;;;;;;;;;;5029243;28;20071;-62
2021/12/21 04:46:27;;;;;;;5.00;3.00;;;;;;;;;;5032443;28;20022;-62
2021/12/21 04:48:54;;;;;;;5.37;2.93;;;;;;;;;;5032408;28;20057;-62
2021/12/21 04:51:21;;;;;;;8.00;3.13;;;;;;;;;;5032068;28;20049;-62
2021/12/21 04:53:48;;;;;;;7.57;2.60;;;;;;;;;;5032518;28;20033;-63
2021/12/21 04:56:15;;;;;;;5.60;2.73;;;;;;;;;;5030426;28;20078;-62
2021/12/21 04:58:42;;;;;;;6.20;3.20;;;;;;;;;;5026892;28;20048;-62
2021/12/21 05:01:08;;;;;;;5.90;2.80;;;;;;;;;;5026862;28;20029;-62
2021/12/21 05:03:35;;;;;;;5.97;2.97;;;;;;;;;;5026987;28;20021;-61
2021/12/21 05:06:02;;;;;;;4.10;2.67;;;;;;;;;;5028185;28;20025;-62
2021/12/21 05:08:33;;;;;;;10.57;4.03;;;;;;;;;;5032257;28;20036;-62
2021/12/21 05:11:04;;;;;;;9.33;3.70;;;;;;;;;;5031969;28;20025;-62
2021/12/21 05:13:33;;;;;;;5.67;3.70;;;;;;;;;;5032168;28;20017;-62
2021/12/21 05:16:00;;;;;;;5.40;3.13;;;;;;;;;;5032293;28;20128;-62
2021/12/21 05:18:27;;;;;;;7.80;3.50;;;;;;;;;;5030312;28;20025;-63
2021/12/21 05:20:54;;;;;;;5.63;3.10;;;;;;;;;;5026416;28;20029;-62
2021/12/21 05:23:21;;;;;;;7.87;3.33;;;;;;;;;;5026802;28;20080;-62
2021/12/21 05:25:49;;;;;;;10.83;3.33;;;;;;;;;;5026877;28;20032;-63
2021/12/21 05:28:17;;;;;;;4.63;2.93;;;;;;;;;;5027436;28;20044;-62
2021/12/21 05:30:44;;;;;;;5.30;2.83;;;;;;;;;;5031690;28;20022;-62
2021/12/21 05:33:11;;;;;;;5.77;2.60;;;;;;;;;;5032328;28;20076;-62
2021/12/21 05:35:38;;;;;;;4.37;2.50;;;;;;;;;;5032191;28;20027;-62
2021/12/21 05:38:08;;;;;;;7.63;3.27;;;;;;;;;;5031924;28;20504;-62
2021/12/21 05:40:41;;;;;;;3.23;2.17;;;;;;;;;;5030247;28;20030;-62
2021/12/21 05:43:08;;;;;;;5.13;2.30;;;;;;;;;;5026462;28;20033;-62
2021/12/21 05:45:35;;;;;;;5.07;2.67;;;;;;;;;;5026723;28;20857;-62
2021/12/21 05:48:02;;;;;;;4.20;2.67;;;;;;;;;;5026720;28;20032;-62
2021/12/21 05:50:29;;;;;;;4.33;2.33;;;;;;;;;;5028657;28;20083;-62
2021/12/21 05:52:56;;;;;;;3.70;2.10;;;;;;;;;;5035704;28;20021;-62
2021/12/21 05:55:23;;;;;;;5.20;2.00;;;;;;;;;;5035631;28;20028;-62
2021/12/21 05:57:50;;;;;;;4.53;2.37;;;;;;;;;;5035436;28;20034;-62
2021/12/21 06:00:18;;;;;;;3.03;2.30;;;;;;;;;;5035269;28;20029;-62
2021/12/21 06:02:45;;;;;;;3.50;2.53;;;;;;;;;;5034115;28;20435;-62
2021/12/21 06:05:12;;;;;;;4.77;2.37;;;;;;;;;;5030492;28;20373;-62
2021/12/21 06:07:39;;;;;;;7.13;2.37;;;;;;;;;;5030050;28;20025;-62
2021/12/21 06:10:16;;;;;;;4.27;2.53;;;;;;;;;;5030262;28;20029;-62
2021/12/21 06:15:40;;;;;;;6.35;2.60;;;;;;;;;;5035262;28;20052;-61
2021/12/21 06:26:16;;;;;;;6.00;2.07;;;;;;;;;;5043284;28;20067;-61
2021/12/21 06:28:43;;;;;;;8.60;3.70;;;;;;;;;;5029747;28;20045;-62
2021/12/21 06:31:10;;;;;;;3.03;2.00;;;;;;;;;;5037769;28;20032;-61
2021/12/21 06:33:37;;;;;;;4.63;2.10;;;;;;;;;;5043637;28;20024;-61
2021/12/21 06:36:05;;;;;;;3.20;2.10;;;;;;;;;;5036004;28;20081;-62
2021/12/21 06:38:32;;;;;;;3.90;1.87;;;;;;;;;;5034969;28;20026;-62
2021/12/21 06:40:59;;;;;;;15.17;3.03;;;;;;;;;;5034603;28;20039;-62
2021/12/21 06:43:26;;;;;;;5.37;2.20;;;;;;;;;;5034382;28;20022;-62
2021/12/21 06:51:34;;;;;;;4.57;1.70;;;;;;;;;;5029257;28;20375;-62
2021/12/21 06:54:01;;;;;;;4.43;2.23;;;;;;;;;;5029533;28;20034;-62
2021/12/21 06:56:28;;;;;;;4.30;2.00;;;;;;;;;;5029327;28;20562;-62
2021/12/21 06:58:55;;;;;;;5.27;2.57;;;;;;;;;;5033811;28;20033;-62
2021/12/21 07:01:23;;;;;;;4.80;2.30;;;;;;;;;;5034114;28;20026;-62
2021/12/21 07:03:50;;;;;;;6.33;2.93;;;;;;;;;;5034423;28;20113;-62
2021/12/21 07:06:18;;;;;;;8.97;2.50;;;;;;;;;;5033746;28;20056;-62
2021/12/21 07:08:59;;;;;;;3.73;2.33;;;;;;;;;;5034442;28;20080;-62
2021/12/21 07:11:55;;;;;;;4.73;2.70;;;;;;;;;;5029152;28;20026;-62
2021/12/21 07:19:44;;;;;;;4.70;2.90;;;;;;;;;;5030415;28;19955;-62
2021/12/21 07:22:11;;;;;;;6.73;2.83;;;;;;;;;;5033542;28;20033;-62
2021/12/21 07:24:38;;;;;;;5.67;3.10;;;;;;;;;;5034146;28;20025;-62
2021/12/21 07:27:05;;;;;;;6.50;3.00;;;;;;;;;;5033826;28;20022;-62
2021/12/21 07:29:32;;;;;;;8.67;3.10;;;;;;;;;;5034013;28;20036;-62
2021/12/21 07:31:58;;;;;;;6.37;3.00;;;;;;;;;;5032532;28;20101;-61
2021/12/21 07:34:25;;;;;;;4.63;2.63;;;;;;;;;;5028871;28;20033;-62
2021/12/21 07:36:52;;;;;;;3.80;2.17;;;;;;;;;;5028508;28;20037;-62
2021/12/21 07:39:19;;;;;;;6.57;2.50;;;;;;;;;;5028404;28;20464;-62
2021/12/21 07:41:46;;;;;;;3.90;2.60;;;;;;;;;;5029467;28;20037;-62
2021/12/21 07:44:13;;;;;;;5.23;3.40;;;;;;;;;;5033658;28;20025;-62
2021/12/21 07:46:42;;;;;;;6.67;2.43;;;;;;;;;;5033355;28;20028;-62
2021/12/21 07:49:09;;;;;;;4.20;2.70;;;;;;;;;;5033708;28;20065;-62
2021/12/21 07:51:36;;;;;;;5.43;2.70;;;;;;;;;;5033555;28;20028;-62
2021/12/21 07:54:02;;;;;;;7.77;2.93;;;;;;;;;;5032052;28;20029;-62
2021/12/21 07:56:30;;;;;;;5.73;2.97;;;;;;;;;;5028029;28;20056;-62
2021/12/21 07:58:57;;;;;;;4.47;2.40;;;;;;;;;;5028311;28;20124;-62
2021/12/21 08:01:24;;;;;;;4.87;2.80;;;;;;;;;;5028022;28;20036;-62
2021/12/21 08:03:53;;;;;;;5.30;3.20;;;;;;;;;;5028387;28;20032;-62
2021/12/21 08:06:20;;;;;;;3.83;2.53;;;;;;;;;;5033403;28;20381;-62
2021/12/21 08:08:48;;;;;;;5.23;2.53;;;;;;;;;;5032701;28;20480;-62
2021/12/21 08:11:28;;;;;;;4.80;3.40;;;;;;;;;;5032779;28;20124;-62
2021/12/21 08:13:56;;;;;;;6.70;3.20;;;;;;;;;;5032345;28;20033;-62
2021/12/21 08:16:23;;;;;;;5.40;2.93;;;;;;;;;;5031534;28;20025;-62
2021/12/21 08:18:50;;;;;;;5.87;3.20;;;;;;;;;;5027767;28;20017;-62
2021/12/21 08:21:18;;;;;;;4.83;2.60;;;;;;;;;;5027993;28;20036;-61
2021/12/21 08:23:45;;;;;;;5.07;2.67;;;;;;;;;;5027878;28;20107;-62
2021/12/21 08:26:12;;;;;;;8.17;2.90;;;;;;;;;;5027972;28;20552;-62
2021/12/21 08:28:38;;;;;;;5.20;2.97;;;;;;;;;;5032701;28;20030;-62
2021/12/21 08:31:10;;;;;;;5.53;2.90;;;;;;;;;;5032836;28;20075;-62
2021/12/21 08:33:38;;;;;;;4.53;2.93;;;;;;;;;;5032753;28;20033;-62
2021/12/21 08:36:06;;;;;;;5.13;2.80;;;;;;;;;;5032471;28;20034;-62
2021/12/21 08:38:36;;;;;;;5.33;3.00;;;;;;;;;;5031708;28;20401;-62
2021/12/21 08:41:03;;;;;;;5.17;2.87;;;;;;;;;;5027179;28;20660;-62
2021/12/21 08:43:32;;;;;;;5.60;3.10;;;;;;;;;;5027540;28;20022;-62
2021/12/21 08:45:59;;;;;;;5.90;3.13;;;;;;;;;;5027420;28;20017;-62
2021/12/21 08:48:27;;;;;;;4.33;2.50;;;;;;;;;;5027707;28;20056;-61
2021/12/21 08:50:54;;;;;;;4.57;2.50;;;;;;;;;;5032217;28;20449;-62
2021/12/21 08:53:22;;;;;;;4.73;2.83;;;;;;;;;;5032428;28;20025;-62
2021/12/21 08:55:49;;;;;;;4.07;2.43;;;;;;;;;;5032678;28;20021;-62
2021/12/21 08:58:16;;;;;;;3.60;2.40;;;;;;;;;;5032668;28;20376;-62
2021/12/21 09:00:43;;;;;;;4.57;2.30;;;;;;;;;;5031815;28;20021;-62
2021/12/21 09:03:10;;;;;;;8.07;2.77;;;;;;;;;;5026899;28;20030;-62
2021/12/21 09:05:37;;;;;;;5.13;2.83;;;;;;;;;;5027310;28;20037;-62
2021/12/21 09:08:04;;;;;;;5.70;2.93;;;;;;;;;;5026790;28;20408;-62
2021/12/21 09:10:31;;;;;;;3.87;2.37;;;;;;;;;;5027076;28;20029;-62
2021/12/21 09:12:58;;;;;;;6.63;2.97;;;;;;;;;;5032380;28;20025;-62
2021/12/21 09:15:25;;;;;;;5.03;2.77;;;;;;;;;;5031964;28;20034;-62
2021/12/21 09:17:54;;;;;;;6.33;3.53;;;;;;;;;;5032198;28;20151;-62
2021/12/21 09:20:22;;;;;;;6.23;3.50;;;;;;;;;;5032166;28;20033;-62
2021/12/21 09:22:50;;;;;;;6.23;2.70;;;;;;;;;;5031635;28;20064;-62
2021/12/21 09:25:17;;;;;;;5.87;3.03;;;;;;;;;;5029972;28;20025;-62
2021/12/21 09:27:44;;;;;;;5.80;2.33;;;;;;;;;;5030576;28;20742;-62
2021/12/21 09:30:12;;;;;;;6.30;3.63;;;;;;;;;;5030950;28;20049;-62
2021/12/21 09:32:40;;;;;;;3.77;2.70;;;;;;;;;;5031169;28;20021;-62
2021/12/21 09:35:06;;;;;;;7.57;3.20;;;;;;;;;;5035859;28;20025;-62
2021/12/21 09:37:34;;;;;;;4.20;2.87;;;;;;;;;;5035774;28;20358;-62
2021/12/21 09:40:01;;;;;;;4.53;2.73;;;;;;;;;;5035877;28;20033;-62
2021/12/21 09:42:32;;;;;;;5.67;3.03;;;;;;;;;;5035967;28;20022;-62
2021/12/21 09:44:59;;;;;;;6.30;3.77;;;;;;;;;;5035902;28;20472;-62
2021/12/21 09:47:27;;;;;;;4.70;3.13;;;;;;;;;;5030803;28;20099;-62
2021/12/21 09:49:54;;;;;;;5.87;3.43;;;;;;;;;;5030697;28;20041;-62
2021/12/21 09:52:22;;;;;;;5.67;3.13;;;;;;;;;;5030065;28;20121;-62
2021/12/21 09:54:50;;;;;;;8.50;3.20;;;;;;;;;;5030436;28;20025;-62
2021/12/21 09:57:17;;;;;;;5.37;2.90;;;;;;;;;;5035232;28;20056;-62
2021/12/21 09:59:45;;;;;;;4.97;3.27;;;;;;;;;;5035589;28;20083;-62
2021/12/21 10:02:12;;;;;;;5.27;3.10;;;;;;;;;;5035641;28;20029;-62
2021/12/21 10:04:48;;;;;;;6.10;3.13;;;;;;;;;;5035251;28;20030;-62
2021/12/21 10:07:15;;;;;;;5.90;2.90;;;;;;;;;;5035071;28;20068;-62
2021/12/21 10:09:47;;;;;;;3.73;2.40;;;;;;;;;;5030570;28;20037;-62
2021/12/21 10:12:34;;;;;;;4.60;2.70;;;;;;;;;;5029903;28;20396;-62
2021/12/21 10:15:04;;;;;;;6.20;3.00;;;;;;;;;;5030422;28;20377;-62
2021/12/21 10:17:35;;;;;;;3.23;2.27;;;;;;;;;;5030071;28;20033;-62
2021/12/21 10:20:09;;;;;;;4.30;2.50;;;;;;;;;;5035489;28;20029;-62
2021/12/21 10:22:38;;;;;;;5.00;2.90;;;;;;;;;;5035030;28;20468;-62
2021/12/21 10:25:08;;;;;;;5.13;2.70;;;;;;;;;;5035137;28;20495;-61
2021/12/21 10:27:43;;;;;;;6.70;3.57;;;;;;;;;;5035135;28;20369;-61
2021/12/21 10:30:10;;;;;;;4.10;2.42;;;;;;;;;;5033747;28;20025;-62
2021/12/21 10:32:36;;;;;;;7.23;3.97;;;;;;;;;;5029961;28;20021;-62
2021/12/21 10:35:08;;;;;;;7.30;3.20;;;;;;;;;;5029643;28;20030;-62
2021/12/21 10:37:40;;;;;;;5.47;3.60;;;;;;;;;;5029385;28;20032;-62
2021/12/21 10:40:09;;;;;;;4.50;2.57;;;;;;;;;;5030836;28;20029;-61
2021/12/21 10:42:46;;;;;;;6.80;3.37;;;;;;;;;;5034932;28;20061;-61
2021/12/21 10:45:13;;;;;;;3.87;2.63;;;;;;;;;;5034805;28;20491;-62
2021/12/21 10:47:42;;;;;;;4.97;3.00;;;;;;;;;;5034349;28;20052;-61
2021/12/21 10:50:09;;;;;;;4.33;2.53;;;;;;;;;;5034784;28;20030;-62
2021/12/21 10:52:35;;;;;;;5.30;3.00;;;;;;;;;;5032859;28;20554;-62
2021/12/21 10:55:05;;;;;;;4.57;2.87;;;;;;;;;;5029379;28;20017;-61
2021/12/21 10:57:33;;;;;;;5.00;2.70;;;;;;;;;;5029375;28;20028;-62
2021/12/21 11:00:01;;;;;;;9.33;4.30;;;;;;;;;;5029393;28;20068;-62
2021/12/21 11:02:31;;;;;;;15.33;7.13;;;;;;;;;;5030521;28;20099;-61
2021/12/21 11:05:03;;;;;;;34.53;13.93;;;;;;;;;;5034513;28;20018;-62
2021/12/21 11:07:42;;;;;;;14.83;8.90;;;;;;;;;;5033995;28;20073;-61
2021/12/21 11:10:15;;;;;;;11.03;5.27;;;;;;;;;;5034358;28;20036;-61
2021/12/21 11:13:01;;;;;;;9.07;4.90;;;;;;;;;;5034392;28;20033;-61
2021/12/21 11:15:31;;;;;;;6.13;3.70;;;;;;;;;;5031032;28;20071;-62
2021/12/21 11:17:59;;;;;;;6.53;2.93;;;;;;;;;;5029235;28;20028;-61
2021/12/21 11:20:26;;;;;;;5.77;3.53;;;;;;;;;;5028871;28;20071;-61
2021/12/21 11:22:54;;;;;;;7.50;4.10;;;;;;;;;;5028443;28;20484;-62
2021/12/21 11:25:21;;;;;;;6.33;3.17;;;;;;;;;;5031519;28;20029;-61
2021/12/21 11:27:48;;;;;;;5.63;3.10;;;;;;;;;;5034164;28;20026;-62
2021/12/21 11:30:17;;;;;;;6.00;2.77;;;;;;;;;;5033744;28;20013;-62
2021/12/21 11:32:48;;;;;;;12.20;6.30;;;;;;;;;;5033529;28;20075;-62
2021/12/21 11:37:48;;;;;;;4.80;2.83;;;;;;;;;;5030468;28;20045;-62
2021/12/21 11:40:19;;;;;;;6.20;3.03;;;;;;;;;;5028667;28;20104;-62
2021/12/21 11:42:52;;;;;;;6.90;4.20;;;;;;;;;;5027849;28;20033;-61
2021/12/21 11:45:31;;;;;;;14.10;6.93;;;;;;;;;;5028763;28;20107;-61
2021/12/21 11:48:03;;;;;;;13.20;7.30;;;;;;;;;;5030760;28;20029;-61
2021/12/21 11:50:30;;;;;;;12.47;7.73;;;;;;;;;;5033665;28;20048;-61
2021/12/21 11:53:01;;;;;;;10.57;6.53;;;;;;;;;;5032413;28;20033;-62
2021/12/21 11:55:28;;;;;;;10.93;5.93;;;;;;;;;;5033671;28;20376;-61
2021/12/21 11:57:59;;;;;;;10.37;4.90;;;;;;;;;;5033489;28;20029;-61
2021/12/21 12:00:28;;;;;;;10.43;5.73;;;;;;;;;;5029629;28;20400;-61
2021/12/21 12:02:57;;;;;;;8.20;3.80;;;;;;;;;;5028373;28;20033;-62
2021/12/21 12:05:25;;;;;;;8.30;3.33;;;;;;;;;;5027652;28;20104;-61
2021/12/21 12:08:08;;;;;;;8.47;3.63;;;;;;;;;;5027781;28;20053;-61
2021/12/21 12:10:37;;;;;;;23.97;4.93;;;;;;;;;;5031823;28;20025;-61
2021/12/21 12:13:11;;;;;;;11.50;4.60;;;;;;;;;;5033201;28;20091;-61
2021/12/21 12:15:45;;;;;;;11.23;4.03;;;;;;;;;;5032784;28;20104;-61
2021/12/21 12:18:24;;;;;;;7.90;4.30;;;;;;;;;;5033284;28;20032;-61
2021/12/21 12:20:51;;;;;;;8.90;4.43;;;;;;;;;;5032714;28;20079;-61
2021/12/21 12:23:19;;;;;;;11.00;4.80;;;;;;;;;;5027753;28;20542;-61
2021/12/21 12:25:54;;;;;;;9.97;4.37;;;;;;;;;;5027980;28;20584;-62
2021/12/21 12:28:28;;;;;;;12.57;5.68;;;;;;;;;;5027706;28;20036;-61
2021/12/21 12:30:55;;;;;;;7.68;3.83;;;;;;;;;;5027860;28;20041;-61
2021/12/21 12:33:22;;;;;;;8.07;5.23;;;;;;;;;;5032506;28;20376;-61
2021/12/21 12:35:49;;;;;;;9.63;4.50;;;;;;;;;;5032706;28;20104;-61
2021/12/21 12:38:21;;;;;;;7.27;3.83;;;;;;;;;;5032821;28;20048;-61
2021/12/21 12:40:49;;;;;;;8.07;3.97;;;;;;;;;;5032747;28;20045;-61
2021/12/21 12:43:29;;;;;;;7.10;3.87;;;;;;;;;;5032074;28;20021;-62
2021/12/21 12:46:02;;;;;;;7.33;3.77;;;;;;;;;;5007679;28;20053;-61
2021/12/21 12:48:33;;;;;;;9.10;5.87;;;;;;;;;;5007773;28;20065;-61
2021/12/21 12:51:01;;;;;;;9.63;5.33;;;;;;;;;;5007587;28;20026;-62
2021/12/21 12:53:37;;;;;;;10.67;4.63;;;;;;;;;;5008553;28;20080;-61
2021/12/21 12:56:04;;;;;;;6.07;3.60;;;;;;;;;;5019297;28;20040;-61
2021/12/21 12:58:31;;;;;;;7.10;3.90;;;;;;;;;;5032194;28;20100;-61
2021/12/21 13:01:03;;;;;;;4.50;3.07;;;;;;;;;;5032525;28;20024;-61
2021/12/21 13:03:41;;;;;;;6.70;3.07;;;;;;;;;;5032485;28;20049;-61
2021/12/21 13:06:09;;;;;;;4.60;3.10;;;;;;;;;;5030391;28;20492;-61
2021/12/21 13:08:35;;;;;;;5.20;3.03;;;;;;;;;;5026288;28;20116;-61
2021/12/21 13:11:04;;;;;;;7.97;3.97;;;;;;;;;;5027249;28;20044;-61
2021/12/21 13:13:35;;;;;;;6.27;3.90;;;;;;;;;;5026867;28;20057;-62
2021/12/21 13:16:09;;;;;;;8.40;3.73;;;;;;;;;;5028694;28;20025;-61
2021/12/21 13:18:43;;;;;;;7.43;3.03;;;;;;;;;;5032081;28;20032;-61
2021/12/21 13:21:27;;;;;;;5.93;3.23;;;;;;;;;;5032041;28;20021;-61
2021/12/21 13:24:09;;;;;;;4.93;3.00;;;;;;;;;;5012234;28;20052;-61
2021/12/21 13:26:44;;;;;;;7.30;3.40;;;;;;;;;;5012457;28;20054;-61
2021/12/21 13:29:14;;;;;;;7.13;4.43;;;;;;;;;;5008727;28;20496;-61
2021/12/21 13:31:43;;;;;;;6.03;3.60;;;;;;;;;;5008515;28;20031;-62
2021/12/21 13:34:10;;;;;;;11.33;3.97;;;;;;;;;;5026980;28;20112;-61
2021/12/21 13:36:36;;;;;;;8.73;4.43;;;;;;;;;;5026607;28;20029;-61
2021/12/21 13:39:15;;;;;;;8.97;4.13;;;;;;;;;;5030163;28;20507;-61
2021/12/21 13:41:48;;;;;;;5.47;3.70;;;;;;;;;;5032016;28;20028;-61
2021/12/21 13:44:21;;;;;;;6.83;3.53;;;;;;;;;;5031668;28;20026;-61
2021/12/21 13:46:47;;;;;;;8.97;4.33;;;;;;;;;;5031760;28;20061;-61
2021/12/21 13:49:14;;;;;;;6.73;3.93;;;;;;;;;;5031774;28;20042;-61
2021/12/21 13:51:56;;;;;;;8.47;3.50;;;;;;;;;;5027629;28;20103;-61
2021/12/21 13:54:24;;;;;;;7.83;4.33;;;;;;;;;;5026650;28;20064;-62
2021/12/21 13:56:51;;;;;;;6.00;3.67;;;;;;;;;;5026654;28;20025;-61
2021/12/21 13:59:19;;;;;;;9.57;4.43;;;;;;;;;;5026434;28;20034;-61
2021/12/21 14:01:47;;;;;;;12.67;4.33;;;;;;;;;;5030828;28;20032;-61
2021/12/21 14:04:16;;;;;;;9.23;4.10;;;;;;;;;;5031984;28;20041;-61
2021/12/21 14:06:45;;;;;;;10.13;3.93;;;;;;;;;;5031490;28;20030;-62
2021/12/21 14:09:12;;;;;;;7.63;3.97;;;;;;;;;;5030982;28;20060;-62
2021/12/21 14:11:40;;;;;;;6.47;2.83;;;;;;;;;;5033530;28;20079;-61
2021/12/21 14:14:14;;;;;;;7.57;3.40;;;;;;;;;;5030559;28;20032;-62
2021/12/21 14:16:42;;;;;;;3.83;2.17;;;;;;;;;;5029869;28;20096;-62
2021/12/21 14:19:13;;;;;;;5.27;3.07;;;;;;;;;;5030213;28;20040;-62
2021/12/21 14:21:40;;;;;;;3.43;2.00;;;;;;;;;;5029678;28;20017;-62
2021/12/21 14:24:11;;;;;;;5.43;2.20;;;;;;;;;;5034715;28;20026;-62
2021/12/21 14:26:46;;;;;;;3.70;1.97;;;;;;;;;;5035201;28;20057;-62
2021/12/21 14:29:15;;;;;;;5.63;2.60;;;;;;;;;;5021903;28;20037;-61
2021/12/21 14:34:35;;;;;;;3.97;2.53;;;;;;;;;;5060828;28;20029;-62
2021/12/21 14:37:07;;;;;;;4.77;2.17;;;;;;;;;;5031347;28;20413;-63
2021/12/21 14:39:34;;;;;;;6.73;2.57;;;;;;;;;;5024945;28;20021;-62
2021/12/21 14:42:04;;;;;;;4.83;2.27;;;;;;;;;;5030263;28;20036;-60
2021/12/21 14:44:35;;;;;;;5.60;2.17;;;;;;;;;;5029725;28;20025;-60
2021/12/21 14:47:17;;;;;;;;;;;;;;;;;;;;;
2021/12/21 14:49:51;;;;;;;3.97;1.90;;;;;;;;;;5054183;28;20037;-62
2021/12/21 14:52:28;;;;;;;4.75;2.00;;;;;;;;;;5044041;28;20030;-63
2021/12/21 14:55:05;;;;;;;4.17;2.07;;;;;;;;;;5034542;28;20017;-63
2021/12/21 14:57:32;;;;;;;4.47;2.10;;;;;;;;;;5032467;28;20105;-63
2021/12/21 14:59:59;;;;;;;6.53;1.97;;;;;;;;;;5029515;28;20052;-63
2021/12/21 15:04:58;;;;;;;2.70;1.83;;;;;;;;;;5029674;28;20160;-63
2021/12/21 15:07:25;;;;;;;3.73;2.20;;;;;;;;;;5030766;28;20021;-62
2021/12/21 15:09:52;;;;;;;3.80;2.40;;;;;;;;;;5034422;28;20049;-61
2021/12/21 15:12:20;;;;;;;4.43;2.10;;;;;;;;;;5034292;28;20029;-61
2021/12/21 15:14:47;;;;;;;4.27;2.27;;;;;;;;;;5032731;28;20032;-61
2021/12/21 15:17:14;;;;;;;5.60;2.33;;;;;;;;;;5033953;28;20025;-61
2021/12/21 15:19:41;;;;;;;3.40;2.20;;;;;;;;;;5031837;28;20029;-60
2021/12/21 15:22:08;;;;;;;4.30;2.00;;;;;;;;;;5028289;28;20032;-61
2021/12/21 15:24:35;;;;;;;4.33;2.20;;;;;;;;;;5028717;28;20025;-61
2021/12/21 15:27:01;;;;;;;6.27;1.93;;;;;;;;;;5028416;28;20746;-60
2021/12/21 15:29:28;;;;;;;3.13;2.00;;;;;;;;;;5029281;28;20033;-61
2021/12/21 15:31:55;;;;;;;6.00;2.23;;;;;;;;;;5033172;28;20026;-61
2021/12/21 15:34:26;;;;;;;5.40;2.20;;;;;;;;;;5030622;28;20029;-63
2021/12/21 15:36:55;;;;;;;3.17;2.10;;;;;;;;;;5033354;28;20018;-60
2021/12/21 15:39:23;;;;;;;3.83;1.83;;;;;;;;;;5033231;28;20346;-60
2021/12/21 15:41:55;;;;;;;3.63;2.10;;;;;;;;;;5032015;28;20717;-60
2021/12/21 15:44:29;;;;;;;4.43;1.93;;;;;;;;;;5028668;28;20109;-60
2021/12/21 15:46:56;;;;;;;;;;;;;;;;;;5014127;28;20480;-61
2021/12/21 15:49:23;;;;;;;3.90;2.30;;;;;;;;;;5028045;28;20580;-62
2021/12/21 15:51:49;;;;;;;4.63;2.20;;;;;;;;;;5028762;28;20472;-62
2021/12/21 15:54:16;;;;;;;10.60;1.83;;;;;;;;;;5033131;28;20025;-62
2021/12/21 15:56:43;;;;;;;3.83;1.80;;;;;;;;;;5033194;28;20017;-61
2021/12/21 15:59:15;;;;;;;4.50;2.80;;;;;;;;;;5033065;28;20026;-62
2021/12/21 16:01:53;;;;;;;3.87;2.03;;;;;;;;;;5032979;28;20026;-61